sensor_id;sensor_type;location;lat;lon;timestamp;temperature;humidity
38464;DHT22;24243;51.956;5.902;2022-10-15T00:01:23;19.90;58.70
38464;DHT22;24243;51.956;5.902;2022-10-15T00:03:50;19.90;58.70
38464;DHT22;24243;51.956;5.902;2022-10-15T00:06:17;19.90;58.70
38464;DHT22;24243;51.956;5.902;2022-10-15T00:08:43;19.90;58.70
38464;DHT22;24243;51.956;5.902;2022-10-15T00:11:14;19.90;58.70
38464;DHT22;24243;51.956;5.902;2022-10-15T00:13:40;19.90;58.70
38464;DHT22;24243;51.956;5.902;2022-10-15T00:16:10;19.90;58.70
38464;DHT22;24243;51.956;5.902;2022-10-15T00:18:37;19.80;58.60
38464;DHT22;24243;51.956;5.902;2022-10-15T00:21:09;19.80;58.60
38464;DHT22;24243;51.956;5.902;2022-10-15T00:23:35;19.90;58.60
38464;DHT22;24243;51.956;5.902;2022-10-15T00:26:01;19.80;58.60
38464;DHT22;24243;51.956;5.902;2022-10-15T00:28:27;19.80;58.60
38464;DHT22;24243;51.956;5.902;2022-10-15T00:30:58;19.80;58.60
38464;DHT22;24243;51.956;5.902;2022-10-15T00:33:23;19.80;58.60
38464;DHT22;24243;51.956;5.902;2022-10-15T00:35:56;19.80;58.60
38464;DHT22;24243;51.956;5.902;2022-10-15T00:38:22;19.80;58.60
38464;DHT22;24243;51.956;5.902;2022-10-15T00:40:47;19.80;59.20
38464;DHT22;24243;51.956;5.902;2022-10-15T00:43:13;19.80;58.60
38464;DHT22;24243;51.956;5.902;2022-10-15T00:45:38;19.80;58.50
38464;DHT22;24243;51.956;5.902;2022-10-15T00:48:05;19.80;58.50
38464;DHT22;24243;51.956;5.902;2022-10-15T00:50:32;19.80;58.50
38464;DHT22;24243;51.956;5.902;2022-10-15T00:53:04;19.80;58.50
38464;DHT22;24243;51.956;5.902;2022-10-15T00:55:32;19.80;58.50
38464;DHT22;24243;51.956;5.902;2022-10-15T00:58:03;19.80;58.50
38464;DHT22;24243;51.956;5.902;2022-10-15T01:00:29;19.80;58.50
38464;DHT22;24243;51.956;5.902;2022-10-15T01:02:55;19.80;58.50
38464;DHT22;24243;51.956;5.902;2022-10-15T01:05:21;19.80;58.50
38464;DHT22;24243;51.956;5.902;2022-10-15T01:07:47;19.70;58.40
38464;DHT22;24243;51.956;5.902;2022-10-15T01:10:13;19.70;58.40
38464;DHT22;24243;51.956;5.902;2022-10-15T01:17:53;19.80;58.50
38464;DHT22;24243;51.956;5.902;2022-10-15T01:30:47;19.70;58.30
38464;DHT22;24243;51.956;5.902;2022-10-15T01:33:21;19.70;58.30
38464;DHT22;24243;51.956;5.902;2022-10-15T01:35:50;19.70;58.30
38464;DHT22;24243;51.956;5.902;2022-10-15T01:38:29;19.70;58.30
38464;DHT22;24243;51.956;5.902;2022-10-15T01:46:00;19.70;58.30
38464;DHT22;24243;51.956;5.902;2022-10-15T01:48:28;19.70;58.30
38464;DHT22;24243;51.956;5.902;2022-10-15T01:50:55;19.70;58.30
38464;DHT22;24243;51.956;5.902;2022-10-15T01:53:22;19.70;58.30
38464;DHT22;24243;51.956;5.902;2022-10-15T01:55:52;19.70;58.30
38464;DHT22;24243;51.956;5.902;2022-10-15T01:58:18;19.70;58.30
38464;DHT22;24243;51.956;5.902;2022-10-15T02:00:44;19.70;58.30
38464;DHT22;24243;51.956;5.902;2022-10-15T02:03:11;19.60;58.20
38464;DHT22;24243;51.956;5.902;2022-10-15T02:05:38;19.70;58.20
38464;DHT22;24243;51.956;5.902;2022-10-15T02:10:54;19.60;58.20
38464;DHT22;24243;51.956;5.902;2022-10-15T02:13:24;19.70;58.20
38464;DHT22;24243;51.956;5.902;2022-10-15T02:19:14;19.60;58.20
38464;DHT22;24243;51.956;5.902;2022-10-15T02:21:48;19.60;58.10
38464;DHT22;24243;51.956;5.902;2022-10-15T02:24:20;19.60;58.20
38464;DHT22;24243;51.956;5.902;2022-10-15T02:26:46;19.70;58.20
38464;DHT22;24243;51.956;5.902;2022-10-15T02:29:15;19.60;58.10
38464;DHT22;24243;51.956;5.902;2022-10-15T02:31:43;19.60;58.20
38464;DHT22;24243;51.956;5.902;2022-10-15T02:34:10;19.60;58.10
38464;DHT22;24243;51.956;5.902;2022-10-15T02:36:39;19.60;58.10
38464;DHT22;24243;51.956;5.902;2022-10-15T02:39:05;19.60;58.10
38464;DHT22;24243;51.956;5.902;2022-10-15T02:41:33;19.60;58.10
38464;DHT22;24243;51.956;5.902;2022-10-15T02:43:58;19.60;58.10
38464;DHT22;24243;51.956;5.902;2022-10-15T02:46:24;19.60;58.10
38464;DHT22;24243;51.956;5.902;2022-10-15T02:48:49;19.60;58.10
38464;DHT22;24243;51.956;5.902;2022-10-15T02:51:15;19.60;58.10
38464;DHT22;24243;51.956;5.902;2022-10-15T02:53:41;19.60;58.10
38464;DHT22;24243;51.956;5.902;2022-10-15T02:56:06;19.60;58.10
38464;DHT22;24243;51.956;5.902;2022-10-15T02:58:32;19.60;58.10
38464;DHT22;24243;51.956;5.902;2022-10-15T03:00:57;19.60;58.10
38464;DHT22;24243;51.956;5.902;2022-10-15T03:03:23;19.60;58.10
38464;DHT22;24243;51.956;5.902;2022-10-15T03:05:49;19.60;58.00
38464;DHT22;24243;51.956;5.902;2022-10-15T03:08:14;19.60;58.00
38464;DHT22;24243;51.956;5.902;2022-10-15T03:10:40;19.60;58.00
38464;DHT22;24243;51.956;5.902;2022-10-15T03:13:05;19.60;58.00
38464;DHT22;24243;51.956;5.902;2022-10-15T03:15:31;19.60;58.00
38464;DHT22;24243;51.956;5.902;2022-10-15T03:17:56;19.60;58.00
38464;DHT22;24243;51.956;5.902;2022-10-15T03:20:22;19.60;58.00
38464;DHT22;24243;51.956;5.902;2022-10-15T03:22:48;19.60;58.00
38464;DHT22;24243;51.956;5.902;2022-10-15T03:25:13;19.60;58.00
38464;DHT22;24243;51.956;5.902;2022-10-15T03:27:39;19.60;58.00
38464;DHT22;24243;51.956;5.902;2022-10-15T03:30:05;19.60;58.00
38464;DHT22;24243;51.956;5.902;2022-10-15T03:32:31;19.60;58.00
38464;DHT22;24243;51.956;5.902;2022-10-15T03:34:56;19.60;58.00
38464;DHT22;24243;51.956;5.902;2022-10-15T03:37:22;19.60;58.00
38464;DHT22;24243;51.956;5.902;2022-10-15T03:39:47;19.60;58.00
38464;DHT22;24243;51.956;5.902;2022-10-15T03:42:13;19.60;58.00
38464;DHT22;24243;51.956;5.902;2022-10-15T03:44:38;19.60;58.00
38464;DHT22;24243;51.956;5.902;2022-10-15T03:47:04;19.50;57.90
38464;DHT22;24243;51.956;5.902;2022-10-15T03:49:30;19.60;58.00
38464;DHT22;24243;51.956;5.902;2022-10-15T03:51:55;19.50;57.90
38464;DHT22;24243;51.956;5.902;2022-10-15T03:54:21;19.50;57.90
38464;DHT22;24243;51.956;5.902;2022-10-15T03:56:46;19.50;57.90
38464;DHT22;24243;51.956;5.902;2022-10-15T03:59:12;19.60;57.90
38464;DHT22;24243;51.956;5.902;2022-10-15T04:01:38;19.50;57.90
38464;DHT22;24243;51.956;5.902;2022-10-15T04:04:03;19.50;57.90
38464;DHT22;24243;51.956;5.902;2022-10-15T04:06:29;19.50;57.90
38464;DHT22;24243;51.956;5.902;2022-10-15T04:08:55;19.50;57.90
38464;DHT22;24243;51.956;5.902;2022-10-15T04:11:20;19.60;57.90
38464;DHT22;24243;51.956;5.902;2022-10-15T04:13:49;19.50;57.90
38464;DHT22;24243;51.956;5.902;2022-10-15T04:16:15;19.50;57.90
38464;DHT22;24243;51.956;5.902;2022-10-15T04:18:40;19.50;57.90
38464;DHT22;24243;51.956;5.902;2022-10-15T04:21:06;19.50;57.90
38464;DHT22;24243;51.956;5.902;2022-10-15T04:23:31;19.50;57.90
38464;DHT22;24243;51.956;5.902;2022-10-15T04:25:58;19.50;57.90
38464;DHT22;24243;51.956;5.902;2022-10-15T04:28:24;19.50;57.80
38464;DHT22;24243;51.956;5.902;2022-10-15T04:30:50;19.50;57.80
38464;DHT22;24243;51.956;5.902;2022-10-15T04:33:15;19.50;57.80
38464;DHT22;24243;51.956;5.902;2022-10-15T04:35:41;19.50;57.80
38464;DHT22;24243;51.956;5.902;2022-10-15T04:38:06;19.50;57.80
38464;DHT22;24243;51.956;5.902;2022-10-15T04:40:32;19.50;57.80
38464;DHT22;24243;51.956;5.902;2022-10-15T04:42:58;19.50;57.80
38464;DHT22;24243;51.956;5.902;2022-10-15T04:45:24;19.50;57.80
38464;DHT22;24243;51.956;5.902;2022-10-15T04:47:49;19.50;57.80
38464;DHT22;24243;51.956;5.902;2022-10-15T04:50:15;19.50;57.80
38464;DHT22;24243;51.956;5.902;2022-10-15T04:52:40;19.50;57.80
38464;DHT22;24243;51.956;5.902;2022-10-15T04:55:06;19.50;57.80
38464;DHT22;24243;51.956;5.902;2022-10-15T04:57:31;19.50;57.80
38464;DHT22;24243;51.956;5.902;2022-10-15T04:59:57;19.50;57.80
38464;DHT22;24243;51.956;5.902;2022-10-15T05:02:22;19.50;57.80
38464;DHT22;24243;51.956;5.902;2022-10-15T05:04:48;19.50;57.80
38464;DHT22;24243;51.956;5.902;2022-10-15T05:07:14;19.50;57.80
38464;DHT22;24243;51.956;5.902;2022-10-15T05:09:39;19.50;57.80
38464;DHT22;24243;51.956;5.902;2022-10-15T05:12:05;19.50;57.80
38464;DHT22;24243;51.956;5.902;2022-10-15T05:14:30;19.50;57.80
38464;DHT22;24243;51.956;5.902;2022-10-15T05:16:56;19.50;57.80
38464;DHT22;24243;51.956;5.902;2022-10-15T05:19:21;19.50;57.80
38464;DHT22;24243;51.956;5.902;2022-10-15T05:21:47;19.50;57.80
38464;DHT22;24243;51.956;5.902;2022-10-15T05:24:13;19.50;57.80
38464;DHT22;24243;51.956;5.902;2022-10-15T05:26:38;19.50;57.80
38464;DHT22;24243;51.956;5.902;2022-10-15T05:29:04;19.50;57.80
38464;DHT22;24243;51.956;5.902;2022-10-15T05:31:30;19.50;57.70
38464;DHT22;24243;51.956;5.902;2022-10-15T05:33:56;19.50;57.70
38464;DHT22;24243;51.956;5.902;2022-10-15T05:36:23;19.50;57.70
38464;DHT22;24243;51.956;5.902;2022-10-15T05:38:51;19.50;57.70
38464;DHT22;24243;51.956;5.902;2022-10-15T05:41:17;19.50;57.80
38464;DHT22;24243;51.956;5.902;2022-10-15T05:43:45;19.50;57.70
38464;DHT22;24243;51.956;5.902;2022-10-15T05:46:10;19.50;57.70
38464;DHT22;24243;51.956;5.902;2022-10-15T05:48:36;19.50;57.70
38464;DHT22;24243;51.956;5.902;2022-10-15T05:51:11;19.50;57.70
38464;DHT22;24243;51.956;5.902;2022-10-15T05:53:37;19.50;57.70
38464;DHT22;24243;51.956;5.902;2022-10-15T05:56:03;19.50;57.70
38464;DHT22;24243;51.956;5.902;2022-10-15T05:58:31;19.50;57.70
38464;DHT22;24243;51.956;5.902;2022-10-15T06:00:57;19.50;57.80
38464;DHT22;24243;51.956;5.902;2022-10-15T06:03:23;19.50;57.80
38464;DHT22;24243;51.956;5.902;2022-10-15T06:05:49;19.50;57.80
38464;DHT22;24243;51.956;5.902;2022-10-15T06:08:15;19.50;57.80
38464;DHT22;24243;51.956;5.902;2022-10-15T06:10:41;19.50;57.80
38464;DHT22;24243;51.956;5.902;2022-10-15T06:13:07;19.50;57.80
38464;DHT22;24243;51.956;5.902;2022-10-15T06:15:32;19.50;57.80
38464;DHT22;24243;51.956;5.902;2022-10-15T06:17:58;19.50;57.80
38464;DHT22;24243;51.956;5.902;2022-10-15T06:20:24;19.50;57.80
38464;DHT22;24243;51.956;5.902;2022-10-15T06:22:50;19.50;57.80
38464;DHT22;24243;51.956;5.902;2022-10-15T06:25:15;19.50;57.90
38464;DHT22;24243;51.956;5.902;2022-10-15T06:27:41;19.50;57.80
38464;DHT22;24243;51.956;5.902;2022-10-15T06:30:07;19.50;57.80
38464;DHT22;24243;51.956;5.902;2022-10-15T06:32:33;19.50;57.80
38464;DHT22;24243;51.956;5.902;2022-10-15T06:34:58;19.50;57.70
38464;DHT22;24243;51.956;5.902;2022-10-15T06:37:24;19.50;57.70
38464;DHT22;24243;51.956;5.902;2022-10-15T06:39:49;19.50;57.70
38464;DHT22;24243;51.956;5.902;2022-10-15T06:42:15;19.50;57.70
38464;DHT22;24243;51.956;5.902;2022-10-15T06:44:41;19.50;57.70
38464;DHT22;24243;51.956;5.902;2022-10-15T06:47:06;19.60;57.80
38464;DHT22;24243;51.956;5.902;2022-10-15T06:49:32;19.50;57.70
38464;DHT22;24243;51.956;5.902;2022-10-15T06:51:58;19.60;57.80
38464;DHT22;24243;51.956;5.902;2022-10-15T06:54:24;19.60;57.80
38464;DHT22;24243;51.956;5.902;2022-10-15T06:56:49;19.60;57.80
38464;DHT22;24243;51.956;5.902;2022-10-15T06:59:15;19.60;57.80
38464;DHT22;24243;51.956;5.902;2022-10-15T07:01:40;19.60;57.80
38464;DHT22;24243;51.956;5.902;2022-10-15T07:04:06;19.60;57.80
38464;DHT22;24243;51.956;5.902;2022-10-15T07:06:33;19.60;57.90
38464;DHT22;24243;51.956;5.902;2022-10-15T07:09:00;19.60;57.80
38464;DHT22;24243;51.956;5.902;2022-10-15T07:11:26;19.60;57.90
38464;DHT22;24243;51.956;5.902;2022-10-15T07:13:51;19.60;57.90
38464;DHT22;24243;51.956;5.902;2022-10-15T07:16:17;19.70;57.90
38464;DHT22;24243;51.956;5.902;2022-10-15T07:18:42;19.70;58.00
38464;DHT22;24243;51.956;5.902;2022-10-15T07:21:08;19.70;58.00
38464;DHT22;24243;51.956;5.902;2022-10-15T07:23:34;19.70;58.00
38464;DHT22;24243;51.956;5.902;2022-10-15T07:26:00;19.70;58.10
38464;DHT22;24243;51.956;5.902;2022-10-15T07:28:26;19.70;58.10
38464;DHT22;24243;51.956;5.902;2022-10-15T07:30:51;19.70;58.10
38464;DHT22;24243;51.956;5.902;2022-10-15T07:33:17;19.70;58.10
38464;DHT22;24243;51.956;5.902;2022-10-15T07:35:43;19.70;58.20
38464;DHT22;24243;51.956;5.902;2022-10-15T07:38:09;19.70;58.20
38464;DHT22;24243;51.956;5.902;2022-10-15T07:40:34;19.70;58.20
38464;DHT22;24243;51.956;5.902;2022-10-15T07:43:00;19.70;58.20
38464;DHT22;24243;51.956;5.902;2022-10-15T07:45:26;19.70;58.20
38464;DHT22;24243;51.956;5.902;2022-10-15T07:47:52;19.70;58.50
38464;DHT22;24243;51.956;5.902;2022-10-15T07:50:18;19.70;58.30
38464;DHT22;24243;51.956;5.902;2022-10-15T07:52:44;19.70;58.30
38464;DHT22;24243;51.956;5.902;2022-10-15T07:55:10;19.70;58.30
38464;DHT22;24243;51.956;5.902;2022-10-15T07:57:35;19.80;58.30
38464;DHT22;24243;51.956;5.902;2022-10-15T08:00:01;19.70;58.30
38464;DHT22;24243;51.956;5.902;2022-10-15T08:02:27;19.70;58.30
38464;DHT22;24243;51.956;5.902;2022-10-15T08:04:52;19.70;58.30
38464;DHT22;24243;51.956;5.902;2022-10-15T08:07:18;19.70;58.30
38464;DHT22;24243;51.956;5.902;2022-10-15T08:09:43;19.80;58.40
38464;DHT22;24243;51.956;5.902;2022-10-15T08:12:09;19.80;58.30
38464;DHT22;24243;51.956;5.902;2022-10-15T08:14:35;19.80;58.30
38464;DHT22;24243;51.956;5.902;2022-10-15T08:17:01;19.80;58.30
38464;DHT22;24243;51.956;5.902;2022-10-15T08:19:27;19.80;58.30
38464;DHT22;24243;51.956;5.902;2022-10-15T08:21:53;19.80;58.30
38464;DHT22;24243;51.956;5.902;2022-10-15T08:24:18;19.80;58.20
38464;DHT22;24243;51.956;5.902;2022-10-15T08:26:44;19.90;58.30
38464;DHT22;24243;51.956;5.902;2022-10-15T08:29:10;19.90;58.20
38464;DHT22;24243;51.956;5.902;2022-10-15T08:31:36;19.90;58.10
38464;DHT22;24243;51.956;5.902;2022-10-15T08:34:02;20.00;58.00
38464;DHT22;24243;51.956;5.902;2022-10-15T08:36:27;20.00;57.90
38464;DHT22;24243;51.956;5.902;2022-10-15T08:38:53;20.20;57.90
38464;DHT22;24243;51.956;5.902;2022-10-15T08:41:31;20.20;57.70
38464;DHT22;24243;51.956;5.902;2022-10-15T08:43:57;20.20;57.70
38464;DHT22;24243;51.956;5.902;2022-10-15T08:46:34;20.30;57.60
38464;DHT22;24243;51.956;5.902;2022-10-15T08:49:01;20.30;57.60
38464;DHT22;24243;51.956;5.902;2022-10-15T08:54:21;20.40;57.60
38464;DHT22;24243;51.956;5.902;2022-10-15T08:56:52;20.40;57.60
38464;DHT22;24243;51.956;5.902;2022-10-15T09:07:12;20.50;57.60
38464;DHT22;24243;51.956;5.902;2022-10-15T09:09:47;20.50;57.60
38464;DHT22;24243;51.956;5.902;2022-10-15T09:12:31;20.50;57.60
38464;DHT22;24243;51.956;5.902;2022-10-15T09:15:02;20.50;57.60
38464;DHT22;24243;51.956;5.902;2022-10-15T09:17:28;20.50;57.50
38464;DHT22;24243;51.956;5.902;2022-10-15T09:19:56;20.50;57.50
38464;DHT22;24243;51.956;5.902;2022-10-15T09:22:24;20.60;57.50
38464;DHT22;24243;51.956;5.902;2022-10-15T09:24:50;20.60;57.50
38464;DHT22;24243;51.956;5.902;2022-10-15T09:27:30;20.60;57.60
38464;DHT22;24243;51.956;5.902;2022-10-15T09:30:02;20.60;57.60
38464;DHT22;24243;51.956;5.902;2022-10-15T09:32:36;20.60;57.70
38464;DHT22;24243;51.956;5.902;2022-10-15T09:37:53;20.50;57.70
38464;DHT22;24243;51.956;5.902;2022-10-15T09:40:34;20.60;57.70
38464;DHT22;24243;51.956;5.902;2022-10-15T09:43:02;20.60;57.70
38464;DHT22;24243;51.956;5.902;2022-10-15T09:45:28;20.60;57.60
38464;DHT22;24243;51.956;5.902;2022-10-15T09:47:58;20.60;57.60
38464;DHT22;24243;51.956;5.902;2022-10-15T09:55:44;20.70;57.70
38464;DHT22;24243;51.956;5.902;2022-10-15T10:00:54;20.70;57.70
38464;DHT22;24243;51.956;5.902;2022-10-15T10:03:21;20.70;57.80
38464;DHT22;24243;51.956;5.902;2022-10-15T10:05:47;20.60;57.70
38464;DHT22;24243;51.956;5.902;2022-10-15T10:08:20;20.60;57.80
38464;DHT22;24243;51.956;5.902;2022-10-15T10:11:00;20.60;57.80
38464;DHT22;24243;51.956;5.902;2022-10-15T10:16:05;20.60;57.80
38464;DHT22;24243;51.956;5.902;2022-10-15T10:18:31;20.60;57.90
38464;DHT22;24243;51.956;5.902;2022-10-15T10:20:57;20.50;57.80
38464;DHT22;24243;51.956;5.902;2022-10-15T10:23:25;20.60;57.90
38464;DHT22;24243;51.956;5.902;2022-10-15T10:25:54;20.50;57.90
38464;DHT22;24243;51.956;5.902;2022-10-15T10:28:25;20.60;58.00
38464;DHT22;24243;51.956;5.902;2022-10-15T10:33:23;20.50;58.00
38464;DHT22;24243;51.956;5.902;2022-10-15T10:35:50;20.50;58.00
38464;DHT22;24243;51.956;5.902;2022-10-15T10:38:17;20.50;58.10
38464;DHT22;24243;51.956;5.902;2022-10-15T10:40:43;20.50;58.70
38464;DHT22;24243;51.956;5.902;2022-10-15T10:45:44;20.60;58.20
38464;DHT22;24243;51.956;5.902;2022-10-15T10:48:16;20.60;58.20
38464;DHT22;24243;51.956;5.902;2022-10-15T10:50:42;20.60;58.10
38464;DHT22;24243;51.956;5.902;2022-10-15T10:53:21;20.60;58.20
38464;DHT22;24243;51.956;5.902;2022-10-15T10:55:47;20.60;58.20
38464;DHT22;24243;51.956;5.902;2022-10-15T10:58:16;20.60;58.20
38464;DHT22;24243;51.956;5.902;2022-10-15T11:00:44;20.60;58.90
38464;DHT22;24243;51.956;5.902;2022-10-15T11:03:20;20.60;58.30
38464;DHT22;24243;51.956;5.902;2022-10-15T11:05:46;20.60;58.40
38464;DHT22;24243;51.956;5.902;2022-10-15T11:08:29;20.50;58.40
38464;DHT22;24243;51.956;5.902;2022-10-15T11:19:39;20.60;58.40
38464;DHT22;24243;51.956;5.902;2022-10-15T11:24:26;20.60;58.50
38464;DHT22;24243;51.956;5.902;2022-10-15T11:39:42;20.60;58.60
38464;DHT22;24243;51.956;5.902;2022-10-15T11:50:24;20.60;58.70
38464;DHT22;24243;51.956;5.902;2022-10-15T11:57:40;20.60;58.80
38464;DHT22;24243;51.956;5.902;2022-10-15T12:02:38;20.50;58.70
38464;DHT22;24243;51.956;5.902;2022-10-15T12:05:20;20.60;58.80
38464;DHT22;24243;51.956;5.902;2022-10-15T12:07:51;20.60;58.80
38464;DHT22;24243;51.956;5.902;2022-10-15T12:13:07;20.50;58.80
38464;DHT22;24243;51.956;5.902;2022-10-15T12:15:38;20.50;58.80
38464;DHT22;24243;51.956;5.902;2022-10-15T12:18:12;20.50;58.90
38464;DHT22;24243;51.956;5.902;2022-10-15T12:20:40;20.50;58.90
38464;DHT22;24243;51.956;5.902;2022-10-15T12:23:16;20.50;58.90
38464;DHT22;24243;51.956;5.902;2022-10-15T12:25:45;20.50;58.90
38464;DHT22;24243;51.956;5.902;2022-10-15T12:28:15;20.50;59.00
38464;DHT22;24243;51.956;5.902;2022-10-15T12:30:42;20.50;59.00
38464;DHT22;24243;51.956;5.902;2022-10-15T12:33:22;20.50;58.90
38464;DHT22;24243;51.956;5.902;2022-10-15T12:35:52;20.50;59.00
38464;DHT22;24243;51.956;5.902;2022-10-15T12:38:19;20.50;59.60
38464;DHT22;24243;51.956;5.902;2022-10-15T12:40:46;20.50;59.00
38464;DHT22;24243;51.956;5.902;2022-10-15T12:43:19;20.50;59.00
38464;DHT22;24243;51.956;5.902;2022-10-15T12:45:49;20.50;59.00
38464;DHT22;24243;51.956;5.902;2022-10-15T12:48:20;20.50;59.00
38464;DHT22;24243;51.956;5.902;2022-10-15T12:50:46;20.50;59.00
38464;DHT22;24243;51.956;5.902;2022-10-15T12:58:35;20.50;59.00
38464;DHT22;24243;51.956;5.902;2022-10-15T13:06:23;20.50;59.00
38464;DHT22;24243;51.956;5.902;2022-10-15T13:11:24;20.50;59.10
38464;DHT22;24243;51.956;5.902;2022-10-15T13:13:52;20.50;59.10
38464;DHT22;24243;51.956;5.902;2022-10-15T13:16:19;20.60;59.10
38464;DHT22;24243;51.956;5.902;2022-10-15T13:18:47;20.60;59.10
38464;DHT22;24243;51.956;5.902;2022-10-15T13:21:13;20.60;59.10
38464;DHT22;24243;51.956;5.902;2022-10-15T13:23:43;20.60;59.10
38464;DHT22;24243;51.956;5.902;2022-10-15T13:28:35;20.60;59.10
38464;DHT22;24243;51.956;5.902;2022-10-15T13:31:04;20.60;59.10
38464;DHT22;24243;51.956;5.902;2022-10-15T13:33:30;20.60;59.10
38464;DHT22;24243;51.956;5.902;2022-10-15T13:36:03;20.60;59.10
38464;DHT22;24243;51.956;5.902;2022-10-15T13:38:28;20.60;59.10
38464;DHT22;24243;51.956;5.902;2022-10-15T13:40:54;20.60;59.10
38464;DHT22;24243;51.956;5.902;2022-10-15T13:43:24;20.60;59.10
38464;DHT22;24243;51.956;5.902;2022-10-15T13:45:57;20.70;59.10
38464;DHT22;24243;51.956;5.902;2022-10-15T13:48:25;20.60;59.10
38464;DHT22;24243;51.956;5.902;2022-10-15T13:50:52;20.60;59.10
38464;DHT22;24243;51.956;5.902;2022-10-15T13:55:48;20.60;59.20
38464;DHT22;24243;51.956;5.902;2022-10-15T13:58:22;20.60;59.20
38464;DHT22;24243;51.956;5.902;2022-10-15T14:03:21;20.60;59.30
38464;DHT22;24243;51.956;5.902;2022-10-15T14:05:48;20.60;59.30
38464;DHT22;24243;51.956;5.902;2022-10-15T14:08:15;20.60;59.30
38464;DHT22;24243;51.956;5.902;2022-10-15T14:10:41;20.60;59.30
38464;DHT22;24243;51.956;5.902;2022-10-15T14:13:07;20.60;59.30
38464;DHT22;24243;51.956;5.902;2022-10-15T14:15:44;20.60;59.30
38464;DHT22;24243;51.956;5.902;2022-10-15T14:18:11;20.60;59.30
38464;DHT22;24243;51.956;5.902;2022-10-15T14:20:41;20.60;59.40
38464;DHT22;24243;51.956;5.902;2022-10-15T14:23:13;20.60;59.40
38464;DHT22;24243;51.956;5.902;2022-10-15T14:25:39;20.60;59.40
38464;DHT22;24243;51.956;5.902;2022-10-15T14:28:13;20.60;59.50
38464;DHT22;24243;51.956;5.902;2022-10-15T14:30:41;20.60;59.50
38464;DHT22;24243;51.956;5.902;2022-10-15T14:36:06;20.50;59.50
38464;DHT22;24243;51.956;5.902;2022-10-15T14:38:32;20.60;59.50
38464;DHT22;24243;51.956;5.902;2022-10-15T14:40:59;20.50;59.50
38464;DHT22;24243;51.956;5.902;2022-10-15T14:43:31;20.50;59.50
38464;DHT22;24243;51.956;5.902;2022-10-15T14:45:57;20.60;59.60
38464;DHT22;24243;51.956;5.902;2022-10-15T14:48:24;20.50;59.50
38464;DHT22;24243;51.956;5.902;2022-10-15T14:50:51;20.60;59.60
38464;DHT22;24243;51.956;5.902;2022-10-15T14:53:18;20.60;59.60
38464;DHT22;24243;51.956;5.902;2022-10-15T14:55:49;20.60;59.50
38464;DHT22;24243;51.956;5.902;2022-10-15T14:58:17;20.60;59.50
38464;DHT22;24243;51.956;5.902;2022-10-15T15:00:44;20.60;59.50
38464;DHT22;24243;51.956;5.902;2022-10-15T15:03:15;20.60;59.50
38464;DHT22;24243;51.956;5.902;2022-10-15T15:05:51;20.60;59.50
38464;DHT22;24243;51.956;5.902;2022-10-15T15:08:17;20.60;59.50
38464;DHT22;24243;51.956;5.902;2022-10-15T15:10:43;20.60;59.50
38464;DHT22;24243;51.956;5.902;2022-10-15T15:13:13;20.60;59.50
38464;DHT22;24243;51.956;5.902;2022-10-15T15:15:41;20.60;59.50
38464;DHT22;24243;51.956;5.902;2022-10-15T15:18:09;20.60;59.60
38464;DHT22;24243;51.956;5.902;2022-10-15T15:20:35;20.60;59.60
38464;DHT22;24243;51.956;5.902;2022-10-15T15:23:01;20.60;59.60
38464;DHT22;24243;51.956;5.902;2022-10-15T15:25:28;20.60;59.60
38464;DHT22;24243;51.956;5.902;2022-10-15T15:27:54;20.60;59.60
38464;DHT22;24243;51.956;5.902;2022-10-15T15:30:20;20.60;59.50
38464;DHT22;24243;51.956;5.902;2022-10-15T15:32:47;20.60;59.50
38464;DHT22;24243;51.956;5.902;2022-10-15T15:37:58;20.60;59.50
38464;DHT22;24243;51.956;5.902;2022-10-15T15:40:24;20.70;59.60
38464;DHT22;24243;51.956;5.902;2022-10-15T15:42:49;20.70;59.60
38464;DHT22;24243;51.956;5.902;2022-10-15T15:45:17;20.70;59.60
38464;DHT22;24243;51.956;5.902;2022-10-15T15:47:42;20.70;59.70
38464;DHT22;24243;51.956;5.902;2022-10-15T15:50:08;20.70;59.80
38464;DHT22;24243;51.956;5.902;2022-10-15T15:52:34;20.70;59.90
38464;DHT22;24243;51.956;5.902;2022-10-15T15:54:59;20.70;60.00
38464;DHT22;24243;51.956;5.902;2022-10-15T15:57:25;20.80;60.00
38464;DHT22;24243;51.956;5.902;2022-10-15T15:59:50;20.70;60.10
38464;DHT22;24243;51.956;5.902;2022-10-15T16:02:16;20.80;60.10
38464;DHT22;24243;51.956;5.902;2022-10-15T16:04:41;20.80;60.20
38464;DHT22;24243;51.956;5.902;2022-10-15T16:07:09;20.80;60.20
38464;DHT22;24243;51.956;5.902;2022-10-15T16:09:35;20.80;60.20
38464;DHT22;24243;51.956;5.902;2022-10-15T16:12:01;20.90;60.30
38464;DHT22;24243;51.956;5.902;2022-10-15T16:14:26;20.90;60.20
38464;DHT22;24243;51.956;5.902;2022-10-15T16:16:52;20.90;60.20
38464;DHT22;24243;51.956;5.902;2022-10-15T16:19:18;20.90;60.30
38464;DHT22;24243;51.956;5.902;2022-10-15T16:21:43;20.90;60.20
38464;DHT22;24243;51.956;5.902;2022-10-15T16:24:09;20.90;60.20
38464;DHT22;24243;51.956;5.902;2022-10-15T16:26:34;20.90;60.40
38464;DHT22;24243;51.956;5.902;2022-10-15T16:29:00;20.90;60.40
38464;DHT22;24243;51.956;5.902;2022-10-15T16:31:26;20.90;60.40
38464;DHT22;24243;51.956;5.902;2022-10-15T16:33:57;20.90;60.50
38464;DHT22;24243;51.956;5.902;2022-10-15T16:36:23;20.90;60.50
38464;DHT22;24243;51.956;5.902;2022-10-15T16:38:49;20.80;60.50
38464;DHT22;24243;51.956;5.902;2022-10-15T16:41:15;20.80;60.60
38464;DHT22;24243;51.956;5.902;2022-10-15T16:43:43;20.80;60.60
38464;DHT22;24243;51.956;5.902;2022-10-15T16:46:08;20.80;60.60
38464;DHT22;24243;51.956;5.902;2022-10-15T16:48:34;20.80;60.70
38464;DHT22;24243;51.956;5.902;2022-10-15T16:51:00;20.80;61.40
38464;DHT22;24243;51.956;5.902;2022-10-15T16:53:26;20.80;60.70
38464;DHT22;24243;51.956;5.902;2022-10-15T16:55:52;20.70;60.60
38464;DHT22;24243;51.956;5.902;2022-10-15T16:58:17;20.80;60.70
38464;DHT22;24243;51.956;5.902;2022-10-15T17:00:43;20.70;60.60
38464;DHT22;24243;51.956;5.902;2022-10-15T17:03:08;20.70;60.60
38464;DHT22;24243;51.956;5.902;2022-10-15T17:05:34;20.70;61.30
38464;DHT22;24243;51.956;5.902;2022-10-15T17:07:59;20.70;60.70
38464;DHT22;24243;51.956;5.902;2022-10-15T17:10:25;20.70;60.70
38464;DHT22;24243;51.956;5.902;2022-10-15T17:12:51;20.70;60.80
38464;DHT22;24243;51.956;5.902;2022-10-15T17:15:17;20.60;60.70
38464;DHT22;24243;51.956;5.902;2022-10-15T17:17:42;20.70;60.70
38464;DHT22;24243;51.956;5.902;2022-10-15T17:20:08;20.70;60.80
38464;DHT22;24243;51.956;5.902;2022-10-15T17:22:34;20.60;60.70
38464;DHT22;24243;51.956;5.902;2022-10-15T17:25:00;20.60;60.80
38464;DHT22;24243;51.956;5.902;2022-10-15T17:27:26;20.60;60.80
38464;DHT22;24243;51.956;5.902;2022-10-15T17:29:51;20.60;60.80
38464;DHT22;24243;51.956;5.902;2022-10-15T17:32:17;20.60;60.90
38464;DHT22;24243;51.956;5.902;2022-10-15T17:34:43;20.60;60.90